Time;durP1;ratioP1;P1;durP2;ratioP2;P2;SDS_P1;SDS_P2;PMS_P1;PMS_P2;Temp;Humidity;BMP_temperature;BMP_pressure;BME280_temperature;BME280_humidity;BME280_pressure;Samples;Min_cycle;Max_cycle;Signal;HPM_P1;HPM_P2
2023/04/22 00:01:23;;;;;;;13.55;8.27;;;;;;;11.45;58.91;100393.31;4954911;29;20049;-79
2023/04/22 00:03:53;;;;;;;8.65;7.55;;;;;;;11.44;58.97;100394.22;4954215;28;20098;-79
2023/04/22 00:06:19;;;;;;;9.75;7.72;;;;;;;11.47;59.13;100393.28;4938810;29;20510;-79
2023/04/22 00:08:46;;;;;;;10.48;7.07;;;;;;;11.45;59.00;100392.47;4954955;29;20067;-79
2023/04/22 00:11:12;;;;;;;7.93;6.63;;;;;;;11.41;59.05;100386.41;4925835;29;20115;-78
2023/04/22 00:13:39;;;;;;;9.65;7.90;;;;;;;11.36;59.99;100383.84;4946835;29;20102;-80
2023/04/22 00:16:06;;;;;;;9.40;7.80;;;;;;;11.36;59.61;100381.22;4939292;29;20164;-79
2023/04/22 00:18:35;;;;;;;9.82;8.68;;;;;;;11.30;59.62;100381.31;4941420;29;20046;-79
2023/04/22 00:21:03;;;;;;;10.40;7.05;;;;;;;11.26;60.12;100371.78;4941796;29;20481;-79
2023/04/22 00:23:29;;;;;;;10.40;9.02;;;;;;;11.22;60.26;100364.88;4942085;29;20063;-78
2023/04/22 00:25:56;;;;;;;13.73;8.13;;;;;;;11.20;60.68;100366.66;4941638;29;20072;-79
2023/04/22 00:28:22;;;;;;;10.75;7.20;;;;;;;11.18;60.52;100348.31;4958186;29;20051;-78
2023/04/22 00:30:49;;;;;;;11.00;7.38;;;;;;;11.15;60.83;100352.78;4956943;29;20043;-78
2023/04/22 00:33:15;;;;;;;11.82;8.80;;;;;;;11.11;61.01;100357.19;4958336;29;20474;-79
2023/04/22 00:35:41;;;;;;;8.40;7.60;;;;;;;11.07;61.55;100360.75;4964755;29;20043;-79
2023/04/22 00:38:08;;;;;;;11.10;8.32;;;;;;;11.02;61.83;100352.94;4944912;29;20043;-79
2023/04/22 00:40:34;;;;;;;11.85;7.50;;;;;;;11.04;61.61;100364.28;4959693;29;20043;-77
2023/04/22 00:43:03;;;;;;;11.07;8.30;;;;;;;11.04;62.08;100366.03;4950151;29;20049;-81
2023/04/22 00:45:30;;;;;;;10.85;8.10;;;;;;;11.09;62.50;100369.44;4949704;29;20050;-79
2023/04/22 00:47:57;;;;;;;13.00;8.30;;;;;;;11.11;62.27;100366.78;4950092;29;20042;-78
2023/04/22 00:50:23;;;;;;;10.52;9.00;;;;;;;11.08;62.45;100362.47;4950414;29;20042;-79
2023/04/22 00:52:50;;;;;;;10.85;8.35;;;;;;;11.04;62.08;100358.16;4965673;29;20431;-78
2023/04/22 00:55:17;;;;;;;9.32;7.70;;;;;;;11.01;62.40;100352.97;4966965;29;20050;-77
2023/04/22 00:57:43;;;;;;;12.85;8.38;;;;;;;10.98;62.78;100353.03;4948552;29;20478;-77
2023/04/22 01:00:10;;;;;;;10.20;8.45;;;;;;;10.99;63.24;100360.88;4957624;29;20043;-78
2023/04/22 01:02:38;;;;;;;10.77;7.15;;;;;;;10.94;62.75;100357.47;4939931;29;20039;-78
2023/04/22 01:05:08;;;;;;;11.30;8.85;;;;;;;10.87;63.35;100356.69;4946575;29;20043;-78
2023/04/22 01:07:35;;;;;;;8.77;7.30;;;;;;;10.84;63.92;100348.84;4944008;29;20074;-78
2023/04/22 01:10:05;;;;;;;9.93;7.75;;;;;;;10.81;63.67;100354.16;4939198;29;20054;-79
2023/04/22 01:12:32;;;;;;;9.93;7.55;;;;;;;10.81;64.14;100353.28;4938605;29;20077;-78
2023/04/22 01:14:58;;;;;;;8.95;7.68;;;;;;;10.79;64.56;100355.91;4940134;29;20039;-78
2023/04/22 01:17:24;;;;;;;10.20;8.13;;;;;;;10.79;64.90;100353.28;4957576;29;20054;-79
2023/04/22 01:19:52;;;;;;;13.20;8.90;;;;;;;10.76;64.66;100350.72;4941300;29;20047;-78
2023/04/22 01:22:19;;;;;;;15.18;8.30;;;;;;;10.69;65.33;100354.31;4942716;29;20051;-79
2023/04/22 01:24:45;;;;;;;9.63;8.60;;;;;;;10.70;65.85;100349.09;4941589;29;20410;-79
2023/04/22 01:27:12;;;;;;;10.50;8.35;;;;;;;10.66;65.46;100354.38;4941307;29;20043;-77
2023/04/22 01:29:39;;;;;;;10.60;8.05;;;;;;;10.57;65.98;100352.72;4941362;29;20040;-78
2023/04/22 01:32:06;;;;;;;9.18;7.07;;;;;;;10.54;66.43;100350.19;4941582;29;20050;-78
2023/04/22 01:34:33;;;;;;;9.57;8.57;;;;;;;10.54;66.12;100351.03;4941156;29;20394;-79
2023/04/22 01:36:59;;;;;;;10.85;8.85;;;;;;;10.51;67.47;100350.22;4941185;29;20147;-79
2023/04/22 01:39:27;;;;;;;12.80;8.82;;;;;;;10.46;67.54;100352.03;4956615;29;20118;-78
2023/04/22 01:41:54;;;;;;;13.55;9.57;;;;;;;10.45;67.67;100345.91;4941219;29;20043;-78
2023/04/22 01:44:20;;;;;;;15.82;8.63;;;;;;;10.37;68.39;100358.25;4957100;29;20126;-79
2023/04/22 01:46:47;;;;;;;12.32;8.55;;;;;;;10.39;68.54;100353.84;4941557;29;20061;-79
2023/04/22 01:49:13;;;;;;;10.48;8.63;;;;;;;10.38;68.53;100345.13;4925690;29;20508;-78
2023/04/22 01:51:40;;;;;;;12.35;9.15;;;;;;;10.36;68.97;100353.91;4943608;29;20063;-78
2023/04/22 01:54:07;;;;;;;14.15;9.38;;;;;;;10.39;68.85;100346.88;4945047;29;20058;-78
2023/04/22 01:56:33;;;;;;;11.25;8.60;;;;;;;10.38;69.21;100346.91;4943961;29;20043;-78
2023/04/22 01:59:00;;;;;;;12.90;8.48;;;;;;;10.34;69.06;100345.16;4959918;29;20466;-78
2023/04/22 02:01:26;;;;;;;10.50;8.52;;;;;;;10.27;68.89;100342.63;4944074;29;20039;-78
2023/04/22 02:03:53;;;;;;;10.82;8.80;;;;;;;10.22;69.61;100333.09;4942528;29;20094;-78
2023/04/22 02:06:19;;;;;;;9.85;8.25;;;;;;;10.18;69.41;100334.03;4959952;29;20070;-78
2023/04/22 02:08:46;;;;;;;10.05;8.50;;;;;;;10.18;69.86;100328.78;4959829;29;20066;-77
2023/04/22 02:11:12;;;;;;;13.50;8.43;;;;;;;10.13;70.14;100343.69;4943588;29;20057;-77
2023/04/22 02:13:41;;;;;;;12.20;9.23;;;;;;;10.12;70.63;100347.16;4942227;29;20051;-79
2023/04/22 02:16:08;;;;;;;13.65;9.18;;;;;;;10.09;70.88;100337.66;4940241;29;20454;-78
2023/04/22 02:18:34;;;;;;;9.48;8.15;;;;;;;10.12;70.85;100344.56;4940152;29;20058;-79
2023/04/22 02:21:01;;;;;;;11.27;9.20;;;;;;;10.08;70.60;100330.69;4955728;29;20058;-79
2023/04/22 02:23:27;;;;;;;10.00;9.00;;;;;;;10.04;70.81;100339.44;4956443;29;20046;-79
2023/04/22 02:25:55;;;;;;;9.30;8.13;;;;;;;9.98;71.47;100329.06;4939968;29;20039;-79
2023/04/22 02:28:22;;;;;;;12.45;9.57;;;;;;;9.91;71.79;100329.13;4940412;29;20126;-79
2023/04/22 02:30:48;;;;;;;12.57;10.02;;;;;;;9.86;72.41;100323.06;4940643;29;20039;-79
2023/04/22 02:33:15;;;;;;;10.45;9.15;;;;;;;9.80;72.14;100322.28;4939803;29;20057;-79
2023/04/22 02:35:41;;;;;;;13.32;8.80;;;;;;;9.74;73.01;100323.22;4955579;29;20042;-78
2023/04/22 02:38:08;;;;;;;15.98;9.27;;;;;;;9.72;73.60;100325.81;4955726;29;20038;-79
2023/04/22 02:40:34;;;;;;;10.18;9.07;;;;;;;9.75;73.87;100330.16;4940135;29;20035;-79
2023/04/22 02:43:01;;;;;;;11.90;10.07;;;;;;;9.74;73.61;100331.06;4956069;29;20043;-79
2023/04/22 02:45:28;;;;;;;15.48;10.40;;;;;;;9.72;73.88;100320.59;4940307;29;20066;-79
2023/04/22 02:47:54;;;;;;;14.07;9.32;;;;;;;9.73;73.65;100324.09;4940555;29;20043;-79
2023/04/22 02:50:21;;;;;;;12.55;8.85;;;;;;;9.73;74.03;100311.88;4956892;29;20039;-79
2023/04/22 02:52:47;;;;;;;14.35;9.25;;;;;;;9.75;73.80;100311.84;4951362;29;20042;-79
2023/04/22 02:55:14;;;;;;;13.18;10.07;;;;;;;9.76;73.76;100304.03;4956607;29;20046;-80
2023/04/22 02:57:41;;;;;;;10.88;9.73;;;;;;;9.81;73.71;100303.09;4957165;29;20043;-79
2023/04/22 03:00:09;;;;;;;12.85;9.13;;;;;;;9.91;74.07;100302.97;4923839;29;20050;-79
2023/04/22 03:02:35;;;;;;;13.32;9.85;;;;;;;9.98;73.56;100310.75;4940136;29;20066;-79
2023/04/22 03:05:02;;;;;;;16.48;9.93;;;;;;;9.99;73.31;100304.63;4939633;29;20054;-79
2023/04/22 03:07:28;;;;;;;11.68;10.15;;;;;;;9.89;73.32;100304.72;4941958;29;20039;-79
2023/04/22 03:09:55;;;;;;;15.18;10.07;;;;;;;9.79;73.87;100304.84;4957728;29;20075;-79
2023/04/22 03:12:22;;;;;;;11.73;10.15;;;;;;;9.69;74.68;100304.09;4925254;29;20115;-79
2023/04/22 03:14:48;;;;;;;11.57;10.30;;;;;;;9.62;74.71;100303.31;4940194;29;20047;-79
2023/04/22 03:17:15;;;;;;;14.10;10.07;;;;;;;9.59;75.47;100305.94;4924231;29;20047;-79
2023/04/22 03:19:44;;;;;;;14.38;9.73;;;;;;;9.52;75.65;100305.16;4939888;29;20039;-80
2023/04/22 03:22:11;;;;;;;12.27;9.68;;;;;;;9.50;76.22;100295.59;4955208;29;20039;-79
2023/04/22 03:24:38;;;;;;;10.80;9.02;;;;;;;9.44;76.79;100291.31;4955260;29;20035;-79
2023/04/22 03:27:05;;;;;;;16.58;10.65;;;;;;;9.41;76.95;100299.16;4939207;29;20454;-79
2023/04/22 03:29:31;;;;;;;14.30;9.65;;;;;;;9.39;77.44;100291.34;4939558;29;20039;-79
2023/04/22 03:31:58;;;;;;;10.90;8.98;;;;;;;9.32;77.20;100289.69;4955059;29;20049;-79
2023/04/22 03:34:24;;;;;;;12.63;9.55;;;;;;;9.28;77.60;100287.94;4939838;29;20039;-79
2023/04/22 03:36:51;;;;;;;14.82;9.75;;;;;;;9.20;77.79;100282.78;4938763;28;20054;-78
2023/04/22 03:39:23;;;;;;;12.80;10.13;;;;;;;9.17;78.44;100290.66;4938824;29;20047;-78
2023/04/22 03:41:49;;;;;;;10.88;9.68;;;;;;;9.12;78.53;100291.59;4924530;29;20051;-79
2023/04/22 03:44:18;;;;;;;13.43;10.10;;;;;;;9.11;79.05;100290.72;4939679;29;20043;-79
2023/04/22 03:46:44;;;;;;;12.35;9.55;;;;;;;9.08;79.18;100293.38;4939821;29;20042;-79
2023/04/22 03:49:11;;;;;;;13.00;10.05;;;;;;;9.08;79.21;100299.44;4939303;29;20035;-79
2023/04/22 03:51:39;;;;;;;12.20;10.15;;;;;;;9.09;80.07;100295.09;4955745;29;20374;-78
2023/04/22 03:54:05;;;;;;;15.85;10.32;;;;;;;9.08;80.03;100299.44;4955913;29;20054;-79
2023/04/22 03:56:32;;;;;;;15.73;10.18;;;;;;;9.10;79.98;100300.31;4956242;29;20079;-79
2023/04/22 03:58:59;;;;;;;12.75;10.15;;;;;;;9.06;80.04;100292.50;4923234;29;20054;-79
2023/04/22 04:01:25;;;;;;;14.20;10.15;;;;;;;9.05;80.14;100293.41;4923593;29;20039;-79
2023/04/22 04:03:52;;;;;;;13.93;10.45;;;;;;;9.04;80.75;100305.56;4939272;29;20059;-79
2023/04/22 04:06:18;;;;;;;15.93;11.10;;;;;;;9.04;80.65;100299.50;4938814;29;20050;-79
2023/04/22 04:08:48;;;;;;;14.80;10.18;;;;;;;9.01;81.04;100299.50;4938568;29;20493;-79
2023/04/22 04:11:15;;;;;;;12.43;10.13;;;;;;;9.00;80.85;100298.66;4938946;29;20467;-81
2023/04/22 04:13:41;;;;;;;14.73;10.88;;;;;;;8.98;80.92;100297.78;4938168;29;20398;-79
2023/04/22 04:16:08;;;;;;;12.20;9.98;;;;;;;8.94;81.55;100296.97;4955493;29;20046;-79
2023/04/22 04:18:35;;;;;;;14.43;10.35;;;;;;;8.92;81.60;100296.09;4955912;29;20050;-79
2023/04/22 04:21:02;;;;;;;12.13;9.57;;;;;;;8.91;82.23;100288.28;4934790;29;20047;-79
2023/04/22 04:23:28;;;;;;;11.65;9.85;;;;;;;8.91;83.07;100293.50;4950970;29;20123;-80
2023/04/22 04:25:55;;;;;;;17.75;10.18;;;;;;;8.94;82.44;100293.47;4918904;29;20048;-79
2023/04/22 04:28:22;;;;;;;16.67;10.90;;;;;;;8.96;82.52;100290.84;4919259;29;20123;-79
2023/04/22 04:30:48;;;;;;;17.13;11.02;;;;;;;8.97;82.19;100285.63;4951483;29;20044;-80
2023/04/22 04:33:20;;;;;;;13.23;9.57;;;;;;;8.99;81.98;100290.84;4951600;29;20052;-79
2023/04/22 04:35:47;;;;;;;12.90;9.18;;;;;;;9.03;82.21;100284.69;4935347;29;20063;-78
2023/04/22 04:38:13;;;;;;;10.85;9.73;;;;;;;9.09;81.88;100285.50;4935870;29;20062;-78
2023/04/22 04:40:44;;;;;;;14.73;10.68;;;;;;;9.13;81.75;100275.91;4951207;29;20048;-78
2023/04/22 04:43:11;;;;;;;14.75;9.90;;;;;;;9.19;81.65;100282.81;4950581;29;20479;-78
2023/04/22 04:45:45;;;;;;;14.57;9.45;;;;;;;9.22;81.10;100288.88;4934871;29;20051;-78
2023/04/22 04:48:15;;;;;;;15.68;8.98;;;;;;;9.25;81.03;100280.16;4950258;29;20043;-78
2023/04/22 04:50:42;;;;;;;16.33;9.55;;;;;;;9.29;80.67;100281.00;4940134;29;20040;-78
2023/04/22 04:53:10;;;;;;;14.15;9.95;;;;;;;9.32;80.31;100279.22;4939354;29;20036;-78
2023/04/22 04:55:37;;;;;;;16.00;10.70;;;;;;;9.38;80.18;100284.38;4938821;29;20058;-79
2023/04/22 04:58:04;;;;;;;12.77;9.25;;;;;;;9.44;80.17;100280.84;4957298;29;20084;-78
2023/04/22 05:00:30;;;;;;;10.73;9.48;;;;;;;9.50;80.02;100274.69;4938929;29;20111;-78
2023/04/22 05:02:57;;;;;;;11.63;9.15;;;;;;;9.58;79.28;100275.44;4954432;29;20118;-78
2023/04/22 05:05:23;;;;;;;13.98;9.32;;;;;;;9.71;79.40;100278.81;4954564;29;20039;-79
2023/04/22 05:07:50;;;;;;;11.15;8.90;;;;;;;9.81;78.41;100283.03;4955055;29;20043;-79
2023/04/22 05:10:17;;;;;;;12.00;8.93;;;;;;;9.87;78.23;100282.13;4954246;29;20447;-79
2023/04/22 05:12:46;;;;;;;12.70;9.77;;;;;;;9.91;77.82;100287.28;4955189;29;20126;-78
2023/04/22 05:15:14;;;;;;;11.68;9.35;;;;;;;9.96;77.48;100283.75;4945419;29;20102;-76
2023/04/22 05:17:42;;;;;;;10.73;8.27;;;;;;;9.96;77.30;100287.25;4945889;29;20074;-79
2023/04/22 05:20:09;;;;;;;10.15;8.15;;;;;;;10.00;76.92;100288.03;4940724;29;20044;-79
2023/04/22 05:22:36;;;;;;;12.77;9.50;;;;;;;9.99;77.17;100284.56;4942205;29;20042;-78
2023/04/22 05:25:05;;;;;;;12.85;9.32;;;;;;;9.97;76.91;100283.72;4941074;29;20059;-78
2023/04/22 05:27:31;;;;;;;10.57;8.98;;;;;;;9.97;77.13;100281.09;4941263;29;20090;-79
2023/04/22 05:29:58;;;;;;;11.43;7.88;;;;;;;9.96;77.60;100281.13;4957371;29;20046;-79
2023/04/22 05:32:24;;;;;;;16.40;8.63;;;;;;;9.96;77.47;100288.97;4958346;29;20125;-79
2023/04/22 05:34:51;;;;;;;13.07;9.25;;;;;;;9.99;77.60;100281.09;4925847;29;20097;-79
2023/04/22 05:37:17;;;;;;;12.63;8.23;;;;;;;10.01;77.65;100288.06;4957139;29;20390;-78
2023/04/22 05:39:44;;;;;;;9.60;8.00;;;;;;;10.04;77.47;100288.00;4957499;29;20125;-79
2023/04/22 05:42:11;;;;;;;13.00;8.75;;;;;;;10.05;77.68;100287.13;4957075;29;20050;-79
2023/04/22 05:44:37;;;;;;;9.18;7.65;;;;;;;10.05;77.27;100286.22;4941193;29;20045;-79
2023/04/22 05:47:04;;;;;;;10.10;7.82;;;;;;;10.06;77.38;100287.97;4925401;29;20053;-79
2023/04/22 05:49:30;;;;;;;9.52;7.97;;;;;;;10.10;77.62;100289.66;4957109;29;20110;-79
2023/04/22 05:51:57;;;;;;;11.40;8.10;;;;;;;10.11;77.86;100291.41;4941057;29;20125;-78
2023/04/22 05:54:23;;;;;;;12.63;8.63;;;;;;;10.14;77.60;100283.50;4941080;29;20043;-79
2023/04/22 05:56:50;;;;;;;8.68;7.20;;;;;;;10.19;77.20;100288.69;4941487;29;20035;-78
2023/04/22 05:59:16;;;;;;;12.95;7.63;;;;;;;10.27;77.38;100287.69;4940510;29;20046;-79
2023/04/22 06:01:43;;;;;;;10.73;7.75;;;;;;;10.33;77.00;100286.75;4923984;29;20051;-79
2023/04/22 06:04:11;;;;;;;10.35;8.00;;;;;;;10.41;76.44;100284.91;4940516;29;20035;-78
2023/04/22 06:06:37;;;;;;;8.90;7.85;;;;;;;10.51;76.00;100277.81;4958153;29;20054;-78
2023/04/22 06:09:04;;;;;;;9.88;7.65;;;;;;;10.65;75.48;100279.34;4958386;29;20040;-77
2023/04/22 06:11:31;;;;;;;9.27;7.32;;;;;;;10.77;75.00;100284.41;4941682;29;20047;-79
2023/04/22 06:13:57;;;;;;;12.30;8.25;;;;;;;10.89;74.18;100284.19;4940735;29;20040;-78
2023/04/22 06:16:24;;;;;;;10.30;7.97;;;;;;;11.04;73.83;100279.59;4940428;29;20051;-79
2023/04/22 06:18:53;;;;;;;9.05;7.55;;;;;;;11.20;72.98;100280.22;4957131;29;20058;-79
2023/04/22 06:21:19;;;;;;;10.07;6.88;;;;;;;11.38;72.08;100285.09;4956437;29;20073;-78
2023/04/22 06:23:46;;;;;;;13.70;7.13;;;;;;;11.57;71.14;100276.91;4957195;29;20043;-78
2023/04/22 06:26:13;;;;;;;7.95;6.40;;;;;;;11.78;70.18;100280.84;4941174;29;20250;-78
2023/04/22 06:28:39;;;;;;;7.93;6.20;;;;;;;11.95;69.36;100279.66;4956069;29;20047;-78
2023/04/22 06:31:05;;;;;;;8.65;7.45;;;;;;;12.13;68.93;100276.66;4940363;29;20043;-77
2023/04/22 06:33:32;;;;;;;10.73;7.25;;;;;;;12.31;68.05;100274.56;4940268;29;20047;-78
2023/04/22 06:35:59;;;;;;;6.53;5.22;;;;;;;12.52;67.26;100275.81;4956125;29;20039;-78
2023/04/22 06:38:25;;;;;;;7.35;5.78;;;;;;;12.79;66.68;100270.81;4940194;29;20070;-78
2023/04/22 06:40:52;;;;;;;8.27;6.03;;;;;;;13.12;64.83;100269.09;4940831;29;20047;-80
2023/04/22 06:43:18;;;;;;;7.50;5.47;;;;;;;13.52;63.26;100261.97;4940442;29;20066;-79
2023/04/22 06:45:47;;;;;;;7.45;5.00;;;;;;;13.94;61.97;100269.56;4940538;29;20050;-79
2023/04/22 06:48:14;;;;;;;6.57;4.60;;;;;;;14.38;60.72;100258.59;4957480;29;20122;-78
2023/04/22 06:50:40;;;;;;;8.68;5.35;;;;;;;14.70;58.40;100257.59;4942770;29;20414;-78
2023/04/22 06:53:08;;;;;;;9.23;4.63;;;;;;;14.85;57.91;100258.03;4958020;29;20046;-79
2023/04/22 06:55:35;;;;;;;9.68;5.00;;;;;;;15.32;56.76;100252.03;4956320;29;20047;-78
2023/04/22 06:58:04;;;;;;;7.65;4.68;;;;;;;15.89;55.68;100242.06;4956455;29;20065;-92
2023/04/22 07:00:30;;;;;;;4.57;4.18;;;;;;;16.69;53.48;100230.16;4941326;29;20520;-79
2023/04/22 07:02:57;;;;;;;5.03;4.40;;;;;;;17.34;52.10;100233.59;4956639;29;20332;-79
2023/04/22 07:05:24;;;;;;;6.13;4.88;;;;;;;17.83;49.89;100238.50;4940200;29;20047;-79
2023/04/22 07:07:50;;;;;;;5.80;4.38;;;;;;;17.72;48.95;100243.41;4956559;29;20094;-79
2023/04/22 07:10:17;;;;;;;5.57;4.47;;;;;;;17.76;49.07;100241.50;4957798;29;20039;-80
2023/04/22 07:12:45;;;;;;;6.00;4.65;;;;;;;17.86;48.21;100238.34;4938669;29;20042;-78
2023/04/22 07:15:11;;;;;;;5.25;4.72;;;;;;;17.91;48.08;100237.25;4940262;29;20047;-79
2023/04/22 07:17:42;;;;;;;6.32;4.47;;;;;;;17.89;47.70;100239.97;4956052;29;20099;-79
2023/04/22 07:20:09;;;;;;;6.53;4.57;;;;;;;17.93;48.16;100244.25;4939741;29;20050;-79
2023/04/22 07:22:35;;;;;;;5.90;4.30;;;;;;;17.86;48.40;100240.97;4956236;29;20058;-79
2023/04/22 07:25:06;;;;;;;7.75;4.50;;;;;;;17.81;48.43;100237.69;4924194;29;20442;-80
2023/04/22 07:27:32;;;;;;;5.38;4.40;;;;;;;17.56;49.09;100237.94;4940673;29;20114;-79
2023/04/22 07:29:59;;;;;;;4.68;4.28;;;;;;;17.50;49.64;100233.78;4956435;29;20047;-80
2023/04/22 07:32:25;;;;;;;6.75;4.63;;;;;;;17.51;49.83;100229.34;4926075;29;20047;-78
2023/04/22 07:34:52;;;;;;;4.85;4.45;;;;;;;17.80;49.48;100232.47;4959094;29;20042;-79
2023/04/22 07:37:18;;;;;;;6.68;4.35;;;;;;;18.01;48.96;100231.50;4944673;29;20050;-79
2023/04/22 07:39:45;;;;;;;5.25;4.30;;;;;;;18.54;47.49;100230.78;4960357;29;20047;-79
2023/04/22 07:42:11;;;;;;;7.20;5.10;;;;;;;18.96;47.25;100233.13;4961164;29;20550;-80
2023/04/22 07:44:38;;;;;;;5.82;4.95;;;;;;;19.09;46.47;100229.88;4965155;29;20046;-79
2023/04/22 07:47:07;;;;;;;6.35;4.60;;;;;;;18.90;46.98;100243.19;4962795;29;20043;-81
2023/04/22 07:49:33;;;;;;;6.53;5.32;;;;;;;18.95;47.26;100234.06;4947368;29;20207;-80
2023/04/22 07:52:00;;;;;;;5.05;3.80;;;;;;;19.12;47.36;100238.50;4946653;29;20046;-79
2023/04/22 07:54:26;;;;;;;3.60;3.33;;;;;;;19.66;45.73;100232.19;4929855;29;20431;-78
2023/04/22 07:56:53;;;;;;;4.65;3.65;;;;;;;20.24;44.34;100229.97;4959928;29;20098;-78
2023/04/22 07:59:19;;;;;;;5.13;3.60;;;;;;;20.80;43.05;100228.53;4940067;29;20049;-79
2023/04/22 08:01:46;;;;;;;7.32;3.20;;;;;;;21.33;41.56;100220.09;4957277;29;20521;-79
2023/04/22 08:04:12;;;;;;;3.40;2.95;;;;;;;21.57;40.33;100232.88;4924144;29;20043;-80
2023/04/22 08:06:39;;;;;;;5.40;3.65;;;;;;;22.09;40.17;100216.28;4940515;29;20046;-79
2023/04/22 08:09:06;;;;;;;4.22;3.25;;;;;;;22.69;38.07;100224.03;4955451;29;20482;-80
2023/04/22 08:11:32;;;;;;;5.03;3.25;;;;;;;23.15;38.00;100228.94;4955815;29;20130;-80
2023/04/22 08:13:59;;;;;;;4.82;3.35;;;;;;;23.02;37.77;100226.22;4908009;29;20044;-79
2023/04/22 08:16:25;;;;;;;3.33;3.03;;;;;;;23.69;36.92;100232.34;4956408;29;20046;-79
2023/04/22 08:18:52;;;;;;;3.00;2.47;;;;;;;23.83;36.04;100221.56;4955282;29;20127;-80
2023/04/22 08:21:18;;;;;;;4.00;2.40;;;;;;;23.10;37.09;100220.34;4939535;29;20066;-81
2023/04/22 08:23:46;;;;;;;3.50;2.53;;;;;;;23.01;37.73;100220.97;4956117;28;20043;-80
2023/04/22 08:26:15;;;;;;;3.72;3.03;;;;;;;22.79;37.26;100219.78;4923534;29;20047;-80
2023/04/22 08:28:42;;;;;;;4.63;2.42;;;;;;;23.05;36.80;100222.47;4924217;29;20050;-79
2023/04/22 08:31:10;;;;;;;3.38;3.00;;;;;;;22.99;37.04;100223.75;4940420;29;20039;-79
2023/04/22 08:33:37;;;;;;;4.75;2.22;;;;;;;23.46;36.45;100218.81;4940655;29;20058;-80
2023/04/22 08:36:03;;;;;;;3.47;2.47;;;;;;;24.10;35.78;100224.06;4940734;29;20043;-81
2023/04/22 08:38:30;;;;;;;2.63;2.47;;;;;;;24.96;34.50;100215.13;4924584;29;20051;-79
2023/04/22 08:40:57;;;;;;;3.03;2.72;;;;;;;25.88;32.73;100217.81;4960158;29;20048;-79
2023/04/22 08:43:26;;;;;;;2.40;2.30;;;;;;;26.74;31.49;100218.00;4926177;29;20050;-79
2023/04/22 08:45:53;;;;;;;3.00;2.78;;;;;;;26.77;31.41;100217.72;4940679;29;20047;-81
2023/04/22 08:48:19;;;;;;;4.90;2.45;;;;;;;27.02;30.95;100216.47;4929667;29;20062;-79
2023/04/22 08:50:48;;;;;;;3.15;2.80;;;;;;;27.16;30.15;100222.53;4942580;29;20039;-80
2023/04/22 08:53:14;;;;;;;4.45;2.50;;;;;;;27.02;30.82;100216.47;4936155;29;20044;-80
2023/04/22 08:55:44;;;;;;;2.83;2.63;;;;;;;26.65;31.20;100218.72;4945113;28;20053;-80
2023/04/22 08:58:11;;;;;;;2.25;2.15;;;;;;;27.03;30.68;100215.50;4946442;29;20047;-80
2023/04/22 09:00:41;;;;;;;4.47;2.55;;;;;;;27.30;30.56;100213.25;4924301;29;20087;-80
2023/04/22 09:03:08;;;;;;;2.65;2.22;;;;;;;27.32;29.76;100203.25;4955109;29;20126;-81
2023/04/22 09:05:37;;;;;;;2.92;2.63;;;;;;;27.79;29.97;100195.53;4938818;29;20114;-80
2023/04/22 09:08:03;;;;;;;2.63;2.50;;;;;;;28.26;28.92;100194.13;4923376;29;20055;-81
2023/04/22 09:10:30;;;;;;;3.97;2.53;;;;;;;28.46;28.62;100192.28;4922511;29;20043;-79
2023/04/22 09:12:58;;;;;;;2.67;2.42;;;;;;;28.88;28.21;100187.47;4937912;29;20050;-80
2023/04/22 09:15:26;;;;;;;4.03;2.58;;;;;;;28.96;27.97;100183.22;4938586;29;20074;-80
2023/04/22 09:17:53;;;;;;;2.78;2.58;;;;;;;29.76;27.44;100180.09;4939177;29;20047;-80
2023/04/22 09:20:26;;;;;;;2.40;1.85;;;;;;;30.20;27.15;100174.88;4923100;29;20094;-81
2023/04/22 09:22:53;;;;;;;3.03;2.30;;;;;;;30.59;25.92;100180.00;4954268;29;20054;-81
2023/04/22 09:25:25;;;;;;;2.17;1.98;;;;;;;31.08;26.04;100176.00;4954861;29;20054;-80
2023/04/22 09:27:59;;;;;;;;;;;;;;;31.22;24.90;100170.00;4939357;29;20042;-80
2023/04/22 09:30:35;;;;;;;2.42;1.63;;;;;;;31.59;25.19;100173.38;4954586;29;20441;-81
2023/04/22 09:33:05;;;;;;;5.65;2.58;;;;;;;32.25;24.51;100170.94;4922604;29;20039;-81
2023/04/22 09:35:34;;;;;;;2.95;2.25;;;;;;;31.84;24.42;100177.09;4956596;28;20065;-80
2023/04/22 09:38:06;;;;;;;2.08;1.80;;;;;;;30.99;25.75;100178.63;4942314;29;20157;-82
2023/04/22 09:40:34;;;;;;;2.95;2.05;;;;;;;31.56;24.73;100168.31;4927036;29;20050;-82
2023/04/22 09:43:07;;;;;;;4.03;2.50;;;;;;;31.72;24.38;100168.41;4958028;29;20043;-81
2023/04/22 09:45:40;;;;;;;2.78;2.08;;;;;;;32.30;23.99;100164.00;4942656;29;20050;-81
2023/04/22 09:48:10;;;;;;;3.92;2.15;;;;;;;31.60;24.05;100166.97;4942774;29;20047;-82
2023/04/22 09:50:47;;;;;;;2.55;2.00;;;;;;;30.67;25.25;100158.44;4944322;29;20047;-80
2023/04/22 09:53:18;;;;;;;3.30;1.90;;;;;;;31.23;25.06;100150.06;4947020;29;20059;-81
2023/04/22 09:55:53;;;;;;;2.65;2.42;;;;;;;31.84;24.62;100142.72;4960706;29;20070;-82
2023/04/22 09:58:22;;;;;;;2.40;2.20;;;;;;;31.42;24.19;100148.13;4959267;29;20038;-80
2023/04/22 10:00:56;;;;;;;2.67;2.47;;;;;;;30.60;24.93;100153.84;4941453;29;20039;-80
2023/04/22 10:03:22;;;;;;;5.32;2.13;;;;;;;30.45;25.66;100148.13;4941300;29;20125;-81
2023/04/22 10:05:49;;;;;;;3.63;2.10;;;;;;;30.82;25.28;100141.66;4925726;29;20102;-81
2023/04/22 10:08:17;;;;;;;5.10;2.22;;;;;;;31.12;25.03;100142.22;4941579;29;20047;-80
2023/04/22 10:10:45;;;;;;;2.53;1.98;;;;;;;32.06;24.13;100137.72;4942960;29;20035;-82
2023/04/22 10:13:11;;;;;;;5.05;2.33;;;;;;;32.92;23.68;100140.13;4941434;29;20039;-80
2023/04/22 10:15:52;;;;;;;4.47;1.73;;;;;;;33.07;22.79;100132.13;4925385;29;20073;-81
2023/04/22 10:18:24;;;;;;;2.22;1.92;;;;;;;33.09;22.16;100119.22;4941884;29;20043;-81
2023/04/22 10:20:53;;;;;;;2.00;1.70;;;;;;;33.38;22.24;100124.09;4941816;29;20466;-81
2023/04/22 10:23:23;;;;;;;1.70;1.60;;;;;;;32.97;23.16;100126.88;4926056;29;20108;-83
2023/04/22 10:25:54;;;;;;;2.42;1.90;;;;;;;33.65;21.50;100121.94;4942118;29;20070;-80
2023/04/22 10:28:24;;;;;;;2.03;1.83;;;;;;;33.09;22.57;100121.94;4908903;29;20090;-81
2023/04/22 10:30:51;;;;;;;2.33;1.55;;;;;;;33.72;22.46;100116.63;4926492;29;20047;-80
2023/04/22 10:33:22;;;;;;;2.50;1.60;;;;;;;33.40;21.58;100123.91;4942349;29;20039;-81
2023/04/22 10:36:26;;;;;;;4.15;1.85;;;;;;;32.50;22.15;100123.03;4941199;29;20043;-81
2023/04/22 10:38:55;;;;;;;2.90;1.80;;;;;;;33.09;22.26;100111.97;4933407;29;20047;-80
2023/04/22 10:41:29;;;;;;;1.98;1.70;;;;;;;32.88;22.56;100119.78;4941249;29;20130;-81
2023/04/22 10:43:59;;;;;;;1.15;1.10;;;;;;;33.26;21.63;100117.34;4926360;29;20479;-80
2023/04/22 10:46:31;;;;;;;2.67;1.88;;;;;;;32.28;22.55;100114.59;4958403;28;20058;-82
2023/04/22 10:49:19;;;;;;;1.63;1.52;;;;;;;32.76;22.82;100111.19;4962213;29;20051;-81
2023/04/22 10:51:49;;;;;;;2.92;1.83;;;;;;;32.99;21.64;100106.72;4941565;29;20050;-80
2023/04/22 10:54:28;;;;;;;1.88;1.75;;;;;;;33.46;21.82;100096.91;4942902;29;20067;-80
2023/04/22 10:57:09;;;;;;;3.95;1.73;;;;;;;33.35;21.40;100104.59;4957900;29;20043;-81
2023/04/22 10:59:49;;;;;;;4.47;1.77;;;;;;;33.61;21.11;100093.44;4941767;29;20114;-80
2023/04/22 11:02:17;;;;;;;1.63;1.52;;;;;;;32.88;21.57;100095.41;4941398;29;20043;-80
2023/04/22 11:04:43;;;;;;;2.40;1.83;;;;;;;33.07;21.83;100088.75;4940927;29;20050;-80
2023/04/22 11:07:21;;;;;;;1.60;1.50;;;;;;;33.19;21.44;100086.50;4956768;29;20051;-81
2023/04/22 11:09:58;;;;;;;1.80;1.70;;;;;;;32.65;21.85;100082.56;4958984;29;20074;-81
2023/04/22 11:12:37;;;;;;;2.05;1.55;;;;;;;33.34;21.12;100081.19;4952218;29;20118;-79
2023/04/22 11:15:16;;;;;;;1.85;1.60;;;;;;;33.87;20.54;100073.28;4979706;28;20039;-79
2023/04/22 11:17:45;;;;;;;2.45;2.25;;;;;;;34.86;20.44;100072.47;4934695;29;20051;-81
2023/04/22 11:20:16;;;;;;;1.90;1.80;;;;;;;35.07;19.66;100072.56;4941748;29;20051;-82
2023/04/22 11:22:46;;;;;;;1.70;1.60;;;;;;;33.33;20.94;100074.09;4940111;29;20122;-81
2023/04/22 11:25:13;;;;;;;1.88;1.77;;;;;;;32.20;22.02;100071.22;4924365;29;20039;-80